< Typhoon 198924 1989 Season Typhoon 198926 >
Typhoon 198925 (COLLEEN)
General InformationTrack Information on Google MapsDetailed Wind InformationList of All Images || Disaster Info.ResourceGoogle EarthGE AnimationAtom FeedGeoJSON
Detalied Best Track (Time Zone = UTC)
Year Month Day Hour Lat. Long. Pressure (hPa) Wind (kt) Class Image Chart
1989 10 1 00 13.0 154.0 1004 0 2 Image Chart
1989 10 1 06 13.0 153.0 1004 0 2 Image Chart
1989 10 1 12 12.8 151.8 1004 0 2 Image Chart
1989 10 1 18 12.2 151.1 1000 0 2 Image Chart
1989 10 2 00 11.9 150.0 998 35 3 Image Chart
1989 10 2 06 12.0 149.0 996 40 3 Image Chart
1989 10 2 12 12.7 148.7 992 45 3 Image Chart
1989 10 2 18 13.5 148.2 990 45 3 Image Chart
1989 10 3 00 14.3 147.9 985 50 4 Image Chart
1989 10 3 06 15.4 147.3 980 55 4 Image Chart
1989 10 3 12 16.2 146.9 975 60 4 Image Chart
1989 10 3 18 17.1 146.5 975 60 4 Image Chart
1989 10 4 00 17.9 146.0 975 60 4 Image Chart
1989 10 4 06 18.8 145.3 970 65 5 Image Chart
1989 10 4 12 19.5 144.9 965 70 5 Image Chart
1989 10 4 18 20.1 144.7 960 75 5 Image Chart
1989 10 5 00 20.7 144.5 955 75 5 Image Chart
1989 10 5 06 21.4 144.2 950 80 5 Image Chart
1989 10 5 12 22.1 143.9 950 80 5 Image Chart
1989 10 5 18 22.9 143.4 950 80 5 Image Chart
1989 10 6 00 23.9 142.5 950 80 5 Image Chart
1989 10 6 06 24.6 141.3 950 80 5 Image Chart
1989 10 6 12 25.3 140.7 950 80 5 Image Chart
1989 10 6 18 26.4 140.6 950 80 5 Image Chart
1989 10 7 00 27.2 140.9 950 80 5 Image Chart
1989 10 7 06 29.1 141.6 950 80 5 Image Chart
1989 10 7 12 30.9 142.9 950 80 5 Image Chart
1989 10 7 18 33.1 145.2 955 75 5 Image Chart
1989 10 8 00 36.0 148.5 960 75 5 Image Chart
1989 10 8 06 39.8 152.7 965 70 5 Image Chart
1989 10 8 12 44.0 158.0 975 60 4 Image Chart
1989 10 8 18 51.0 162.0 976 0 6 Image Chart
1989 10 9 00 55.0 165.0 968 0 6 Image Chart
1989 10 9 06 57.5 167.0 964 0 6 Image Chart
1989 10 9 12 59.0 169.0 960 0 6 Image Chart
1989 10 9 18 61.0 174.0 968 0 6 Image Chart
Japan Meteorological Agency Best Track Data | Correction Date : 1992-10-21
< Typhoon 198924 1989 Season Typhoon 198926 >

Help